Hereford, United Kingdom
Current Conditions -  °F | °C
As of 6:20 AM on Wednesday 26 Nov 2014 (Local Time) from EGFF Reporting Station
Drizzle Drizzle  
Wind Chill: 45°   Ceiling: 1000
Heat Index: 45°   Visibility: 2.5mi
Dew Point: 43°   Wind: 3mph
Humidity: 93%   Direction: 360°N
Pressure: 29.91"   Gusts: NA
Location:  52.07°N, 3.12°W
Report Text: EGFF 260620Z AUTO 36003KT 4100 -DZ OVC010 07/06 Q1013 RERA
Loading
Personal Weather Stations






























Interactive Weather Map New forecast layout! Learn more

10-Day Weather Forecast

Advertisements
Track Severe Weather on mobile